createdAt,value
2023-01-10T00:01:18.605Z,102153.97
2023-01-10T00:06:46.442Z,102176.69
2023-01-10T00:12:28.869Z,102197.59
2023-01-10T00:17:52.061Z,102187.06
2023-01-10T00:23:24.415Z,102189.72
2023-01-10T00:28:49.423Z,102169.75
2023-01-10T00:34:12.788Z,102173.50
2023-01-10T00:39:36.582Z,102163.16
2023-01-10T00:45:08.465Z,102175.41
2023-01-10T00:50:36.881Z,102183.91
2023-01-10T00:56:07.025Z,102201.50
2023-01-10T01:01:37.629Z,102184.53
2023-01-10T01:07:06.656Z,102190.81
2023-01-10T01:12:30.711Z,102197.88
2023-01-10T01:18:01.535Z,102195.78
2023-01-10T01:23:31.531Z,102192.03
2023-01-10T01:29:00.698Z,102205.78
2023-01-10T01:34:31.430Z,102203.97
2023-01-10T01:39:59.999Z,102189.81
2023-01-10T01:45:48.099Z,102197.06
2023-01-10T01:51:25.342Z,102193.63
2023-01-10T01:57:00.098Z,102199.56
2023-01-10T02:02:34.114Z,102176.03
2023-01-10T02:08:04.971Z,102193.28
2023-01-10T02:13:35.255Z,102185.81
2023-01-10T02:19:09.251Z,102174.22
2023-01-10T02:25:19.706Z,102156.69
2023-01-10T02:31:17.436Z,102144.28
2023-01-10T02:36:54.391Z,102146.09
2023-01-10T02:42:30.821Z,102153.50
2023-01-10T02:48:00.610Z,102146.72
2023-01-10T02:53:38.106Z,102148.72
2023-01-10T02:59:51.025Z,102154.38
2023-01-10T03:05:30.276Z,102148.47
2023-01-10T03:11:03.687Z,102132.63
2023-01-10T03:16:35.471Z,102125.50
2023-01-10T03:22:06.367Z,102125.75
2023-01-10T03:27:45.716Z,102118.47
2023-01-10T03:33:18.968Z,102117.50
2023-01-10T03:38:53.207Z,102121.03
2023-01-10T03:44:44.758Z,102126.94
2023-01-10T03:50:19.226Z,102144.38
2023-01-10T03:55:47.802Z,102146.19
2023-01-10T04:01:18.408Z,102139.06
2023-01-10T08:18:43.311Z,102291.50
2023-01-10T08:24:09.183Z,102278.41
2023-01-10T08:29:34.188Z,102267.31
2023-01-10T08:35:00.385Z,102292.00
2023-01-10T08:40:27.017Z,102279.53
2023-01-10T08:45:55.760Z,102291.81
2023-01-10T08:51:20.827Z,102265.56
2023-01-10T08:56:49.948Z,102270.69
2023-01-10T09:02:19.063Z,102258.47
2023-01-10T09:07:43.892Z,102299.97
2023-01-10T09:13:10.834Z,102262.59
2023-01-10T09:18:34.199Z,102252.00
2023-01-10T09:24:00.834Z,102242.19
2023-01-10T09:29:30.185Z,102223.34
2023-01-10T09:34:59.259Z,102221.03
2023-01-10T09:40:44.777Z,102213.34
2023-01-10T09:46:14.010Z,102209.75
2023-01-10T09:51:39.360Z,102206.63
2023-01-10T09:57:17.956Z,102190.56
2023-01-10T10:02:50.758Z,102173.38
2023-01-10T10:08:21.189Z,102197.38
2023-01-10T10:13:57.081Z,102186.31
2023-01-10T10:19:35.587Z,102184.44
2023-01-10T10:25:17.670Z,102173.53
2023-01-10T10:30:57.646Z,102160.19
2023-01-10T10:36:36.166Z,102169.13
2023-01-10T10:42:11.972Z,102172.84
2023-01-10T10:47:50.029Z,102195.13
2023-01-10T10:53:19.823Z,102176.66
2023-01-10T10:58:53.808Z,102174.94
2023-01-10T11:04:25.117Z,102187.34
2023-01-10T11:10:10.656Z,102193.94
2023-01-10T11:15:42.800Z,102201.47
2023-01-10T11:21:16.549Z,102201.56
2023-01-10T11:26:46.045Z,102207.22
2023-01-10T11:32:18.164Z,102200.44
2023-01-10T11:38:00.761Z,102202.69
2023-01-10T11:43:34.420Z,102199.75
2023-01-10T11:49:08.149Z,102187.97
2023-01-10T11:54:43.010Z,102224.81
2023-01-10T12:00:15.717Z,102217.03
2023-01-10T12:05:52.793Z,102226.28
2023-01-10T12:11:29.328Z,102225.19
2023-01-10T12:17:01.352Z,102226.91
2023-01-10T12:22:33.465Z,102238.59
2023-01-10T12:28:03.870Z,102236.03
2023-01-10T12:33:37.008Z,102245.31
2023-01-10T12:39:17.520Z,102243.22
2023-01-10T12:44:53.764Z,102258.22
2023-01-10T12:50:25.110Z,102254.91
2023-01-10T12:55:58.548Z,102263.03
2023-01-10T13:01:33.028Z,102248.47
2023-01-10T13:07:02.824Z,102249.63
2023-01-10T13:12:37.851Z,102260.16
2023-01-10T13:18:21.506Z,102254.34
2023-01-10T13:23:53.201Z,102271.88
2023-01-10T13:29:24.482Z,102290.06
2023-01-10T13:34:55.863Z,102263.88
2023-01-10T13:40:30.441Z,102268.59
2023-01-10T13:46:32.303Z,102307.84
2023-01-10T17:06:41.653Z,102424.72
2023-01-10T17:12:19.466Z,102451.84
2023-01-10T17:17:44.986Z,102445.63
2023-01-10T17:23:16.418Z,102444.06
2023-01-10T17:28:46.658Z,102446.84
2023-01-10T17:34:11.524Z,102430.53
2023-01-10T17:45:46.302Z,102418.78
2023-01-10T17:51:58.351Z,102428.53
2023-01-10T17:57:43.955Z,102420.56
2023-01-10T18:03:11.537Z,102435.88
2023-01-10T18:08:54.933Z,102423.28
2023-01-10T18:14:35.715Z,102427.47
2023-01-10T18:20:04.697Z,102385.91
2023-01-10T18:25:36.326Z,102413.44
2023-01-10T18:31:05.512Z,102420.59
2023-01-10T18:36:34.917Z,102427.78
2023-01-10T18:42:04.148Z,102429.38
2023-01-10T18:47:33.792Z,102427.56
2023-01-10T18:53:03.489Z,102422.69
2023-01-10T18:58:28.775Z,102452.09
2023-01-10T19:03:54.019Z,102423.19
2023-01-10T19:09:35.592Z,102429.56
2023-01-10T19:15:02.829Z,102448.81
2023-01-10T19:20:33.516Z,102438.34
2023-01-10T19:26:02.159Z,102425.34
2023-01-10T19:31:31.070Z,102437.41
2023-01-10T19:37:01.322Z,102435.84
2023-01-10T19:42:30.034Z,102447.16
2023-01-10T19:47:59.139Z,102456.09
2023-01-10T19:53:29.462Z,102465.75
2023-01-10T19:58:58.895Z,102477.38
2023-01-10T20:04:28.509Z,102465.22
2023-01-10T20:09:59.475Z,102467.81
2023-01-10T20:15:28.416Z,102447.78
2023-01-10T20:20:57.931Z,102457.38
2023-01-10T20:26:30.562Z,102445.13
2023-01-10T20:32:01.125Z,102444.16
2023-01-10T20:37:30.849Z,102448.63
2023-01-10T20:43:01.586Z,102467.03
2023-01-10T20:48:30.777Z,102467.19
2023-01-10T20:53:59.832Z,102495.13
2023-01-10T20:59:32.354Z,102492.41
2023-01-10T21:05:01.092Z,102499.56
2023-01-10T21:10:30.499Z,102482.31
2023-01-10T21:16:00.770Z,102480.53
2023-01-10T21:21:29.263Z,102477.69
2023-01-10T21:26:58.233Z,102477.56
2023-01-10T21:32:28.643Z,102471.88
2023-01-10T21:37:57.634Z,102474.56
2023-01-10T21:43:26.381Z,102464.22
2023-01-10T21:48:56.854Z,102476.41
2023-01-10T21:54:26.084Z,102493.97
2023-01-10T21:59:55.629Z,102489.41
2023-01-10T22:05:26.036Z,102479.88
